Time;durP1;ratioP1;P1;durP2;ratioP2;P2;SDS_P1;SDS_P2;PMS_P1;PMS_P2;Temp;Humidity;BMP_temperature;BMP_pressure;BME280_temperature;BME280_humidity;BME280_pressure;Samples;Min_cycle;Max_cycle;Signal;HPM_P1;HPM_P2
2023/01/09 00:01:48;;;;;;;0.20;0.20;;;14.50;62.70;;;;;;4863350;29;20051;-91
2023/01/09 00:04:15;;;;;;;0.20;0.20;;;14.60;62.50;;;;;;4863303;29;20037;-93
2023/01/09 00:06:42;;;;;;;0.30;0.30;;;14.80;62.50;;;;;;4863166;29;20037;-90
2023/01/09 00:09:09;;;;;;;0.25;0.25;;;14.70;62.30;;;;;;4863588;29;20047;-90
2023/01/09 00:11:35;;;;;;;0.20;0.20;;;14.70;62.30;;;;;;4863201;29;20116;-90
2023/01/09 00:14:00;;;;;;;0.30;0.30;;;14.70;62.20;;;;;;4863413;29;20029;-91
2023/01/09 00:16:26;;;;;;;0.20;0.20;;;14.90;62.50;;;;;;4863321;29;20029;-89
2023/01/09 00:18:52;;;;;;;0.20;0.20;;;14.90;62.20;;;;;;4863147;29;20033;-93
2023/01/09 00:21:19;;;;;;;0.35;0.35;;;14.90;62.30;;;;;;4863229;29;20054;-90
2023/01/09 00:23:45;;;;;;;0.20;0.20;;;14.90;62.50;;;;;;4863179;29;20037;-92
2023/01/09 00:26:14;;;;;;;0.30;0.30;;;14.80;63.10;;;;;;4864026;29;20525;-89
2023/01/09 00:28:40;;;;;;;0.28;0.28;;;14.70;63.10;;;;;;4867274;29;20381;-90
2023/01/09 00:31:07;;;;;;;0.40;0.40;;;14.50;64.00;;;;;;4866638;29;20590;-89
2023/01/09 00:33:40;;;;;;;0.22;0.22;;;14.60;63.80;;;;;;4863939;29;20386;-90
2023/01/09 00:36:06;;;;;;;0.20;0.20;;;14.80;63.30;;;;;;4866429;29;20028;-90
2023/01/09 00:38:32;;;;;;;0.10;0.10;;;14.60;63.20;;;;;;4866529;29;20033;-90
2023/01/09 00:40:59;;;;;;;0.32;0.32;;;14.40;64.20;;;;;;4867530;29;20029;-91
2023/01/09 00:43:31;;;;;;;0.28;0.28;;;14.50;64.10;;;;;;4864350;29;20049;-93
2023/01/09 00:45:59;;;;;;;0.20;0.20;;;14.50;63.90;;;;;;4865018;29;20199;-91
2023/01/09 00:48:26;;;;;;;0.47;0.47;;;14.70;63.60;;;;;;4864179;29;20049;-91
2023/01/09 00:50:54;;;;;;;0.20;0.20;;;14.90;63.20;;;;;;4865082;29;20480;-91
2023/01/09 00:53:22;;;;;;;0.17;0.17;;;14.90;62.20;;;;;;4864590;29;20036;-90
2023/01/09 00:55:50;;;;;;;0.35;0.35;;;14.90;62.30;;;;;;4864282;29;20354;-88
2023/01/09 00:58:17;;;;;;;0.40;0.40;;;14.70;62.40;;;;;;4863111;29;20026;-91
2023/01/09 01:00:42;;;;;;;0.20;0.20;;;14.50;63.30;;;;;;4863067;29;20029;-90
2023/01/09 01:03:08;;;;;;;0.38;0.38;;;14.30;63.40;;;;;;4863212;29;20523;-92
2023/01/09 01:08:19;;;;;;;0.20;0.20;;;14.40;63.80;;;;;;4864192;29;20045;-89
2023/01/09 01:10:46;;;;;;;0.30;0.30;;;14.30;64.90;;;;;;4863725;29;20038;-90
2023/01/09 01:13:12;;;;;;;0.38;0.38;;;14.50;64.10;;;;;;4864029;29;20089;-89
2023/01/09 01:15:40;;;;;;;0.30;0.30;;;14.60;64.40;;;;;;4864955;29;20055;-89
2023/01/09 01:18:06;;;;;;;0.20;0.20;;;14.80;63.50;;;;;;4864146;29;20481;-89
2023/01/09 01:20:32;;;;;;;0.20;0.20;;;15.00;63.10;;;;;;4864230;29;20085;-89
2023/01/09 01:22:58;;;;;;;0.20;0.20;;;15.00;62.70;;;;;;4863985;29;20030;-91
2023/01/09 01:25:24;;;;;;;0.30;0.30;;;14.90;62.50;;;;;;4864036;29;20054;-91
2023/01/09 01:27:49;;;;;;;0.20;0.20;;;14.80;63.20;;;;;;4862823;29;20120;-89
2023/01/09 01:30:16;;;;;;;0.30;0.30;;;14.80;63.00;;;;;;4862578;29;20040;-89
2023/01/09 01:32:42;;;;;;;0.30;0.30;;;14.80;63.30;;;;;;4862639;29;20124;-90
2023/01/09 01:35:09;;;;;;;0.20;0.20;;;14.80;63.60;;;;;;4862547;29;20121;-92
2023/01/09 01:37:36;;;;;;;0.28;0.28;;;14.70;63.60;;;;;;4862071;29;20058;-90
2023/01/09 01:40:04;;;;;;;0.10;0.10;;;14.80;63.60;;;;;;4862578;29;20397;-90
2023/01/09 01:42:30;;;;;;;0.30;0.30;;;15.20;62.30;;;;;;4862852;29;20060;-89
2023/01/09 01:45:00;;;;;;;0.15;0.15;;;15.20;62.40;;;;;;4861962;29;20137;-91
2023/01/09 01:47:32;;;;;;;0.30;0.30;;;15.30;62.10;;;;;;4862534;29;20068;-90
2023/01/09 01:50:00;;;;;;;0.30;0.30;;;15.30;61.50;;;;;;4862081;29;20052;-90
2023/01/09 01:52:27;;;;;;;0.20;0.20;;;15.10;62.50;;;;;;4862531;29;20032;-90
2023/01/09 01:54:53;;;;;;;0.20;0.20;;;15.30;61.70;;;;;;4862214;29;20101;-90
2023/01/09 01:57:19;;;;;;;0.30;0.30;;;15.20;62.00;;;;;;4861957;29;20537;-90
2023/01/09 01:59:50;;;;;;;0.40;0.40;;;15.00;62.50;;;;;;4853349;29;20033;-91
2023/01/09 02:02:22;;;;;;;0.22;0.22;;;15.00;62.30;;;;;;4848870;29;20033;-89
2023/01/09 02:04:52;;;;;;;0.30;0.30;;;15.10;62.10;;;;;;4854878;29;20033;-91
2023/01/09 02:07:20;;;;;;;0.30;0.30;;;15.20;61.70;;;;;;4855544;29;20036;-90
2023/01/09 02:09:45;;;;;;;0.30;0.30;;;15.00;63.20;;;;;;4858166;29;20049;-90
2023/01/09 02:12:25;;;;;;;0.20;0.20;;;15.00;62.60;;;;;;4855411;29;20037;-90
2023/01/09 02:15:05;;;;;;;0.30;0.30;;;15.10;62.10;;;;;;4861462;29;20363;-90
2023/01/09 02:18:08;;;;;;;0.30;0.30;;;15.00;62.20;;;;;;4845596;29;20026;-90
2023/01/09 02:20:42;;;;;;;0.20;0.20;;;14.70;62.70;;;;;;4843138;29;20036;-91
2023/01/09 02:23:13;;;;;;;0.28;0.28;;;14.40;63.90;;;;;;4859556;29;20037;-90
2023/01/09 02:26:13;;;;;;;0.40;0.40;;;14.30;64.40;;;;;;4847436;29;20116;-89
2023/01/09 02:29:03;;;;;;;0.20;0.20;;;14.40;65.00;;;;;;4858068;29;20068;-91
2023/01/09 02:31:54;;;;;;;0.40;0.40;;;14.70;64.10;;;;;;4861402;29;20042;-90
2023/01/09 02:34:35;;;;;;;0.20;0.20;;;14.90;63.00;;;;;;4858184;29;20117;-89
2023/01/09 02:37:26;;;;;;;0.30;0.30;;;14.70;63.30;;;;;;4843451;29;20034;-89
2023/01/09 02:40:04;;;;;;;0.25;0.25;;;14.60;64.20;;;;;;4853072;29;20025;-90
2023/01/09 02:42:32;;;;;;;0.20;0.20;;;14.80;64.30;;;;;;4857780;29;20042;-90
2023/01/09 02:44:57;;;;;;;0.28;0.28;;;15.20;63.10;;;;;;4853126;29;20435;-90
2023/01/09 02:47:23;;;;;;;0.30;0.30;;;15.40;62.90;;;;;;4856726;29;20026;-91
2023/01/09 02:50:11;;;;;;;0.30;0.30;;;15.50;62.50;;;;;;4857169;29;20405;-91
2023/01/09 02:52:39;;;;;;;0.20;0.20;;;15.50;61.60;;;;;;4842315;29;20117;-90
2023/01/09 02:55:39;;;;;;;0.28;0.28;;;15.40;62.00;;;;;;4848745;29;20041;-90
2023/01/09 02:58:29;;;;;;;0.30;0.30;;;15.30;62.40;;;;;;4854936;29;20472;-90
2023/01/09 03:01:03;;;;;;;0.25;0.25;;;15.20;62.30;;;;;;4853579;29;20029;-92
2023/01/09 03:03:54;;;;;;;0.20;0.20;;;14.80;63.50;;;;;;4861037;29;20075;-90
2023/01/09 03:06:38;;;;;;;0.30;0.30;;;14.90;63.80;;;;;;4875886;29;20073;-90
2023/01/09 03:09:13;;;;;;;0.40;0.40;;;14.50;64.90;;;;;;4859678;29;20045;-91
2023/01/09 03:11:46;;;;;;;0.25;0.25;;;14.50;64.10;;;;;;4857944;29;20145;-91
2023/01/09 03:14:16;;;;;;;0.17;0.17;;;14.30;65.60;;;;;;4860370;29;20056;-92
2023/01/09 03:16:47;;;;;;;0.40;0.40;;;14.80;64.40;;;;;;4856601;29;20508;-92
2023/01/09 03:19:17;;;;;;;0.30;0.30;;;15.10;63.30;;;;;;4859405;29;20478;-90
2023/01/09 03:21:45;;;;;;;0.30;0.30;;;15.30;63.10;;;;;;4858041;29;20022;-91
2023/01/09 03:24:11;;;;;;;0.20;0.20;;;15.70;62.40;;;;;;4860014;29;20120;-91
2023/01/09 03:26:36;;;;;;;0.30;0.30;;;15.90;61.30;;;;;;4859777;29;20034;-90
2023/01/09 03:29:03;;;;;;;0.30;0.30;;;15.80;61.10;;;;;;4860280;29;20050;-90
2023/01/09 03:31:29;;;;;;;0.20;0.20;;;15.50;62.40;;;;;;4860897;29;20378;-91
2023/01/09 03:33:54;;;;;;;0.30;0.30;;;15.60;62.50;;;;;;4860592;29;20040;-91
2023/01/09 03:36:21;;;;;;;0.30;0.30;;;15.90;61.70;;;;;;4860633;29;20120;-91
2023/01/09 03:38:47;;;;;;;0.25;0.25;;;16.10;61.50;;;;;;4860539;29;20443;-92
2023/01/09 03:41:13;;;;;;;0.20;0.20;;;16.10;61.40;;;;;;4860522;29;20120;-90
2023/01/09 03:43:39;;;;;;;0.30;0.30;;;16.10;61.50;;;;;;4859913;29;20174;-90
2023/01/09 03:46:05;;;;;;;0.30;0.30;;;16.20;60.80;;;;;;4858115;29;20470;-91
2023/01/09 03:48:30;;;;;;;0.30;0.30;;;16.10;61.20;;;;;;4841892;29;20053;-92
2023/01/09 03:50:57;;;;;;;0.30;0.30;;;15.90;61.60;;;;;;4843987;29;20026;-91
2023/01/09 03:53:25;;;;;;;0.30;0.30;;;15.40;63.40;;;;;;4860429;29;20488;-91
2023/01/09 03:55:53;;;;;;;0.30;0.30;;;15.30;63.10;;;;;;4858129;29;20026;-91
2023/01/09 03:58:20;;;;;;;0.30;0.30;;;15.30;63.40;;;;;;4858964;29;20393;-90
2023/01/09 04:00:47;;;;;;;0.10;0.10;;;15.30;63.40;;;;;;4850824;29;20025;-91
2023/01/09 04:03:15;;;;;;;0.32;0.32;;;15.00;64.20;;;;;;4856571;29;20029;-90
2023/01/09 04:05:41;;;;;;;0.25;0.25;;;15.20;63.80;;;;;;4862679;29;20109;-90
2023/01/09 04:08:06;;;;;;;0.40;0.40;;;14.90;64.20;;;;;;4863474;29;20366;-91
2023/01/09 04:10:32;;;;;;;0.35;0.35;;;15.20;64.10;;;;;;4863678;29;20056;-92
2023/01/09 04:12:58;;;;;;;0.40;0.40;;;15.10;63.60;;;;;;4852384;29;20482;-93
2023/01/09 04:15:24;;;;;;;0.20;0.20;;;14.40;65.70;;;;;;4859634;29;20089;-91
2023/01/09 04:17:49;;;;;;;0.30;0.30;;;14.50;64.90;;;;;;4863498;29;20358;-92
2023/01/09 04:20:15;;;;;;;0.20;0.20;;;14.30;66.20;;;;;;4863536;29;20021;-92
2023/01/09 04:22:41;;;;;;;0.30;0.30;;;14.20;66.40;;;;;;4863757;29;20121;-91
2023/01/09 04:25:08;;;;;;;0.30;0.30;;;14.40;66.40;;;;;;4863687;29;20030;-91
2023/01/09 04:27:33;;;;;;;0.40;0.40;;;14.80;64.90;;;;;;4863461;29;20038;-90
2023/01/09 04:29:59;;;;;;;0.20;0.20;;;14.70;65.50;;;;;;4856792;29;20046;-91
2023/01/09 04:32:26;;;;;;;0.22;0.22;;;15.20;64.50;;;;;;4875301;29;20030;-89
2023/01/09 04:34:52;;;;;;;0.35;0.35;;;15.70;63.50;;;;;;4862288;29;20030;-90
2023/01/09 04:37:18;;;;;;;0.25;0.25;;;15.90;62.50;;;;;;4863362;29;20029;-92
2023/01/09 04:39:44;;;;;;;0.20;0.20;;;16.00;61.80;;;;;;4859985;29;20053;-90
2023/01/09 04:42:10;;;;;;;0.40;0.40;;;16.10;61.60;;;;;;4857075;29;20165;-90
2023/01/09 04:44:36;;;;;;;0.28;0.28;;;16.00;61.90;;;;;;4863912;29;20045;-91
2023/01/09 04:47:04;;;;;;;0.30;0.30;;;15.80;62.20;;;;;;4856359;29;20122;-91
2023/01/09 04:49:29;;;;;;;0.20;0.20;;;15.90;62.50;;;;;;4855810;29;20049;-91
2023/01/09 04:51:56;;;;;;;0.40;0.40;;;15.90;62.30;;;;;;4846622;29;20026;-91
2023/01/09 04:54:22;;;;;;;0.30;0.30;;;15.80;62.20;;;;;;4864858;29;20137;-90
2023/01/09 04:56:49;;;;;;;0.30;0.30;;;16.00;62.20;;;;;;4863538;29;20100;-91
2023/01/09 04:59:15;;;;;;;0.30;0.30;;;15.90;62.90;;;;;;4854997;29;20036;-92
2023/01/09 05:01:41;;;;;;;0.38;0.38;;;15.70;63.40;;;;;;4860139;29;20406;-90
2023/01/09 05:04:07;;;;;;;0.35;0.35;;;15.70;63.20;;;;;;4858910;29;20477;-92
2023/01/09 05:06:33;;;;;;;0.20;0.20;;;15.90;62.50;;;;;;4862554;29;20025;-91
2023/01/09 05:09:00;;;;;;;0.20;0.20;;;16.10;62.10;;;;;;4862288;29;20499;-89
2023/01/09 05:11:26;;;;;;;0.30;0.30;;;15.90;62.50;;;;;;4862850;29;20032;-92
2023/01/09 05:13:52;;;;;;;0.30;0.30;;;15.90;62.60;;;;;;4858425;29;20038;-91
2023/01/09 05:16:19;;;;;;;0.30;0.30;;;15.50;63.80;;;;;;4854080;29;20470;-91
2023/01/09 05:18:45;;;;;;;0.30;0.30;;;15.50;63.50;;;;;;4861888;29;20072;-92
2023/01/09 05:21:11;;;;;;;0.20;0.20;;;15.50;63.40;;;;;;4862878;29;20116;-90
2023/01/09 05:23:47;;;;;;;0.40;0.40;;;15.70;63.20;;;;;;4850385;29;20037;-91
2023/01/09 05:26:12;;;;;;;0.22;0.22;;;15.80;62.70;;;;;;4844786;29;20025;-90
2023/01/09 05:28:41;;;;;;;0.30;0.30;;;15.70;63.40;;;;;;4845310;29;20110;-91
2023/01/09 05:31:07;;;;;;;0.38;0.38;;;15.50;63.90;;;;;;4862714;29;20481;-92
2023/01/09 05:33:33;;;;;;;0.22;0.22;;;15.40;64.30;;;;;;4861727;29;20057;-92
2023/01/09 05:35:58;;;;;;;0.40;0.40;;;15.40;64.40;;;;;;4862556;29;20082;-91
2023/01/09 05:38:27;;;;;;;0.20;0.20;;;15.40;64.00;;;;;;4848412;29;20117;-93
2023/01/09 05:40:53;;;;;;;0.20;0.20;;;15.60;63.80;;;;;;4858959;29;20025;-91
2023/01/09 05:43:18;;;;;;;0.20;0.20;;;15.90;63.10;;;;;;4856932;29;20061;-92
2023/01/09 05:45:44;;;;;;;0.40;0.40;;;15.90;62.80;;;;;;4852375;29;20034;-88
2023/01/09 05:48:10;;;;;;;0.25;0.25;;;15.80;62.70;;;;;;4862243;29;20033;-92
2023/01/09 05:50:36;;;;;;;0.30;0.30;;;15.80;62.90;;;;;;4862295;29;20366;-89
2023/01/09 05:53:01;;;;;;;0.22;0.22;;;15.70;63.20;;;;;;4862415;29;20022;-92
2023/01/09 05:55:27;;;;;;;0.30;0.30;;;15.70;62.50;;;;;;4862208;29;20109;-91
2023/01/09 05:57:53;;;;;;;0.20;0.20;;;15.60;63.40;;;;;;4859735;29;20034;-92
2023/01/09 06:00:19;;;;;;;0.30;0.30;;;15.80;63.10;;;;;;4851008;29;20033;-90
2023/01/09 06:02:47;;;;;;;0.50;0.50;;;15.90;62.50;;;;;;4862969;29;20110;-92
2023/01/09 06:05:12;;;;;;;0.32;0.32;;;15.20;64.10;;;;;;4861572;29;20028;-93
2023/01/09 06:07:39;;;;;;;0.20;0.20;;;14.70;65.00;;;;;;4862994;29;20120;-92
2023/01/09 06:10:11;;;;;;;0.30;0.30;;;14.20;66.90;;;;;;4849650;29;20124;-94
2023/01/09 06:12:37;;;;;;;0.30;0.30;;;13.80;67.90;;;;;;4852733;29;20441;-93
2023/01/09 06:15:11;;;;;;;0.45;0.45;;;13.80;68.10;;;;;;4852444;29;20029;-93
2023/01/09 06:17:37;;;;;;;0.30;0.30;;;13.50;68.70;;;;;;4862103;29;20082;-94
2023/01/09 06:20:05;;;;;;;0.20;0.20;;;13.20;69.90;;;;;;4860736;29;20046;-93
2023/01/09 06:22:43;;;;;;;0.25;0.25;;;13.50;69.70;;;;;;4860916;29;20026;-93
2023/01/09 06:25:10;;;;;;;0.40;0.40;;;14.10;67.90;;;;;;4861497;29;20485;-92
2023/01/09 06:27:38;;;;;;;0.20;0.20;;;14.10;68.10;;;;;;4860495;29;20170;-94
2023/01/09 06:30:05;;;;;;;0.32;0.32;;;14.30;67.40;;;;;;4860954;29;20052;-92
2023/01/09 06:32:30;;;;;;;0.20;0.20;;;14.30;66.90;;;;;;4859710;29;20509;-92
2023/01/09 06:34:56;;;;;;;0.30;0.30;;;14.10;67.20;;;;;;4849438;29;20537;-92
2023/01/09 06:37:22;;;;;;;0.35;0.35;;;14.10;67.60;;;;;;4859550;29;20034;-92
2023/01/09 06:39:48;;;;;;;0.25;0.25;;;14.10;67.40;;;;;;4862310;29;20037;-92
2023/01/09 06:42:14;;;;;;;0.40;0.40;;;13.90;67.00;;;;;;4861066;29;20040;-94
2023/01/09 06:44:40;;;;;;;0.20;0.20;;;13.60;68.30;;;;;;4859802;29;20425;-91
2023/01/09 06:47:21;;;;;;;;;;;;;;;;;;;;;
2023/01/09 06:49:47;;;;;;;0.38;0.38;;;13.70;68.60;;;;;;4884153;23;20053;-93
2023/01/09 06:52:13;;;;;;;0.20;0.20;;;13.70;68.40;;;;;;4863287;29;20035;-92
2023/01/09 06:54:39;;;;;;;0.30;0.30;;;14.00;67.70;;;;;;4864477;29;20059;-95
2023/01/09 06:57:04;;;;;;;0.20;0.20;;;14.20;67.30;;;;;;4862890;29;20029;-93
2023/01/09 06:59:30;;;;;;;0.35;0.35;;;14.50;66.60;;;;;;4865388;29;20035;-94
2023/01/09 07:01:56;;;;;;;0.32;0.32;;;14.70;65.60;;;;;;4864959;29;20025;-95
2023/01/09 07:04:22;;;;;;;0.30;0.30;;;14.80;65.40;;;;;;4865427;29;20033;-91
2023/01/09 07:06:54;;;;;;;0.30;0.30;;;14.80;64.90;;;;;;4865530;29;20032;-94
2023/01/09 07:09:19;;;;;;;0.20;0.20;;;14.70;64.80;;;;;;4865530;29;20503;-93
2023/01/09 07:11:45;;;;;;;0.30;0.30;;;14.30;66.40;;;;;;4866023;29;20027;-94
2023/01/09 07:14:11;;;;;;;0.25;0.25;;;14.10;66.50;;;;;;4864161;29;20025;-92
2023/01/09 07:16:39;;;;;;;0.30;0.30;;;14.00;66.70;;;;;;4859855;29;20032;-91
2023/01/09 07:19:05;;;;;;;0.30;0.30;;;13.80;67.20;;;;;;4864167;29;20027;-92
2023/01/09 07:21:31;;;;;;;0.20;0.20;;;13.50;68.50;;;;;;4853717;29;20393;-95
2023/01/09 07:23:56;;;;;;;0.20;0.20;;;13.60;68.00;;;;;;4852252;29;20032;-92
2023/01/09 07:26:22;;;;;;;0.22;0.22;;;13.40;69.00;;;;;;4861710;29;20032;-91
2023/01/09 07:28:48;;;;;;;0.30;0.30;;;13.00;70.00;;;;;;4851186;29;20511;-94
2023/01/09 07:31:13;;;;;;;0.28;0.28;;;13.10;70.00;;;;;;4864085;29;20434;-94
2023/01/09 07:33:39;;;;;;;0.30;0.30;;;13.30;70.10;;;;;;4864959;29;20069;-95
2023/01/09 07:36:05;;;;;;;0.30;0.30;;;13.30;69.70;;;;;;4865715;29;20049;-90
2023/01/09 07:38:34;;;;;;;0.30;0.30;;;13.00;69.80;;;;;;4865496;29;20018;-91
2023/01/09 07:40:59;;;;;;;0.30;0.30;;;12.70;71.80;;;;;;4869224;29;20597;-96
2023/01/09 07:43:38;;;;;;;0.20;0.20;;;12.20;72.40;;;;;;4863345;29;20045;-93
2023/01/09 07:46:04;;;;;;;0.30;0.30;;;12.00;73.60;;;;;;4849374;29;20033;-92
2023/01/09 07:48:37;;;;;;;0.20;0.20;;;12.30;73.40;;;;;;4854246;29;20045;-89
2023/01/09 07:51:09;;;;;;;0.20;0.20;;;12.50;71.90;;;;;;4865465;29;20084;-92
2023/01/09 07:53:35;;;;;;;0.30;0.30;;;12.90;71.80;;;;;;4889607;29;20017;-91
2023/01/09 07:56:01;;;;;;;0.20;0.20;;;12.20;73.30;;;;;;4869940;29;20025;-94
2023/01/09 07:58:26;;;;;;;0.20;0.20;;;12.00;73.50;;;;;;4868961;29;20021;-94
2023/01/09 08:00:52;;;;;;;0.30;0.30;;;11.90;74.10;;;;;;4870635;29;20033;-94
2023/01/09 08:03:18;;;;;;;0.20;0.20;;;11.50;76.00;;;;;;4883267;29;20460;-93
2023/01/09 08:05:45;;;;;;;0.30;0.30;;;11.40;76.60;;;;;;4864642;29;20025;-91
2023/01/09 08:08:11;;;;;;;0.30;0.30;;;11.30;76.10;;;;;;4863981;29;20029;-90
2023/01/09 08:10:36;;;;;;;0.30;0.30;;;11.30;75.80;;;;;;4876345;29;20076;-93
2023/01/09 08:13:05;;;;;;;0.20;0.20;;;11.10;77.30;;;;;;4882913;29;20043;-95
2023/01/09 08:15:36;;;;;;;0.20;0.20;;;11.20;77.30;;;;;;4885908;29;20460;-93
2023/01/09 08:18:02;;;;;;;0.20;0.20;;;11.30;77.00;;;;;;4872052;29;20025;-91
2023/01/09 08:20:28;;;;;;;0.20;0.20;;;11.40;77.40;;;;;;4875247;29;20009;-96
2023/01/09 08:22:55;;;;;;;0.28;0.28;;;11.70;75.50;;;;;;4893764;29;20013;-90
2023/01/09 08:25:21;;;;;;;0.20;0.20;;;11.60;75.50;;;;;;4883812;29;20403;-90
2023/01/09 08:27:47;;;;;;;0.28;0.28;;;11.80;76.20;;;;;;4884637;29;20097;-90
2023/01/09 08:30:13;;;;;;;0.30;0.30;;;11.70;74.90;;;;;;4890926;29;20045;-90
2023/01/09 08:32:42;;;;;;;0.30;0.30;;;11.60;75.80;;;;;;4872584;29;20089;-91
2023/01/09 08:35:13;;;;;;;0.20;0.20;;;11.30;77.50;;;;;;4877564;29;20096;-93
2023/01/09 08:37:43;;;;;;;0.30;0.30;;;11.10;77.60;;;;;;4874823;29;20029;-93
2023/01/09 08:40:33;;;;;;;0.25;0.25;;;10.90;78.60;;;;;;4876910;29;20029;-93
2023/01/09 08:49:18;;;;;;;0.38;0.38;;;10.90;80.10;;;;;;4890164;29;20084;-90
2023/01/09 08:51:47;;;;;;;0.28;0.28;;;11.10;79.10;;;;;;4872865;29;20009;-91
2023/01/09 08:54:12;;;;;;;0.43;0.43;;;11.60;77.30;;;;;;4872043;29;20037;-91
2023/01/09 08:56:38;;;;;;;0.40;0.40;;;11.80;76.90;;;;;;4869915;29;20429;-89
2023/01/09 08:59:04;;;;;;;0.30;0.30;;;12.10;76.00;;;;;;4865068;29;20025;-92
2023/01/09 09:01:30;;;;;;;0.38;0.38;;;12.20;75.40;;;;;;4869570;29;20040;-92
2023/01/09 09:04:00;;;;;;;0.20;0.20;;;12.40;74.30;;;;;;4881854;29;20041;-94
2023/01/09 09:06:26;;;;;;;0.20;0.20;;;12.60;73.50;;;;;;4875986;29;20148;-92
2023/01/09 09:08:51;;;;;;;0.30;0.30;;;12.50;73.30;;;;;;4875514;29;20033;-93
2023/01/09 09:11:17;;;;;;;0.20;0.20;;;12.70;73.00;;;;;;4878591;29;20005;-92
2023/01/09 09:13:43;;;;;;;0.30;0.30;;;12.30;75.40;;;;;;4878041;29;20548;-89
2023/01/09 09:16:08;;;;;;;0.20;0.20;;;12.70;74.10;;;;;;4879908;29;20069;-92
2023/01/09 09:18:34;;;;;;;0.20;0.20;;;13.20;72.40;;;;;;4871664;29;20029;-93
2023/01/09 09:21:00;;;;;;;0.20;0.20;;;13.80;70.90;;;;;;4856313;29;20037;-91
2023/01/09 09:23:25;;;;;;;0.20;0.20;;;14.40;68.80;;;;;;4850963;29;20061;-94
2023/01/09 09:25:51;;;;;;;0.20;0.20;;;14.80;67.90;;;;;;4859255;29;20388;-96
2023/01/09 09:28:17;;;;;;;0.30;0.30;;;14.90;67.70;;;;;;4869494;29;20053;-86
2023/01/09 09:30:43;;;;;;;0.38;0.38;;;14.90;67.30;;;;;;4888120;29;20033;-94
2023/01/09 09:33:09;;;;;;;0.30;0.30;;;15.00;66.60;;;;;;4886877;29;20057;-96
2023/01/09 09:35:35;;;;;;;0.20;0.20;;;15.20;66.00;;;;;;4888153;29;20061;-90
2023/01/09 09:38:05;;;;;;;0.38;0.38;;;15.30;66.00;;;;;;4883930;29;20025;-89
2023/01/09 09:41:05;;;;;;;0.40;0.40;;;15.50;65.50;;;;;;4858750;29;20044;-93
2023/01/09 09:46:35;;;;;;;0.28;0.28;;;15.50;64.60;;;;;;4867158;29;20504;-96
2023/01/09 09:49:39;;;;;;;0.40;0.40;;;15.20;65.50;;;;;;4864897;29;20052;-92
2023/01/09 09:52:38;;;;;;;0.30;0.30;;;15.20;65.30;;;;;;4857625;29;20037;-95
2023/01/09 09:55:32;;;;;;;0.30;0.30;;;15.20;65.40;;;;;;4855810;29;20041;-96
2023/01/09 09:58:06;;;;;;;0.20;0.20;;;15.00;65.40;;;;;;4858367;29;20045;-90
2023/01/09 10:00:32;;;;;;;0.30;0.30;;;14.30;67.40;;;;;;4874662;29;20056;-96
2023/01/09 10:03:02;;;;;;;0.30;0.30;;;14.00;68.70;;;;;;4872980;29;20033;-89
2023/01/09 10:05:36;;;;;;;0.40;0.40;;;13.50;69.90;;;;;;4867533;29;20025;-90
2023/01/09 10:08:21;;;;;;;0.30;0.30;;;13.30;71.50;;;;;;4869520;29;20033;-91
2023/01/09 10:10:51;;;;;;;0.43;0.43;;;13.40;71.50;;;;;;4866626;29;20037;-90
2023/01/09 10:16:21;;;;;;;0.40;0.40;;;13.50;70.80;;;;;;4881541;29;20040;-90
2023/01/09 10:18:53;;;;;;;0.22;0.22;;;13.80;69.30;;;;;;4865456;29;20064;-91
2023/01/09 10:21:49;;;;;;;0.20;0.20;;;13.90;69.70;;;;;;4864354;29;20025;-91
2023/01/09 10:24:27;;;;;;;0.45;0.45;;;14.00;69.40;;;;;;4863733;29;20082;-91
2023/01/09 10:26:53;;;;;;;0.22;0.22;;;14.10;68.90;;;;;;4863648;29;20028;-91
2023/01/09 10:29:58;;;;;;;0.30;0.30;;;14.00;68.50;;;;;;4865190;29;20037;-91
2023/01/09 10:32:33;;;;;;;0.30;0.30;;;13.90;69.40;;;;;;4805976;29;20049;-91
2023/01/09 10:35:04;;;;;;;0.30;0.30;;;14.00;69.60;;;;;;4790170;29;20038;-91
2023/01/09 10:37:41;;;;;;;0.38;0.38;;;14.00;69.30;;;;;;4791589;29;20050;-92
2023/01/09 10:40:28;;;;;;;0.30;0.30;;;13.80;70.40;;;;;;4776882;29;20060;-92
2023/01/09 10:43:05;;;;;;;0.28;0.28;;;13.70;70.40;;;;;;4791226;29;20046;-93
2023/01/09 10:45:51;;;;;;;0.30;0.30;;;13.80;69.60;;;;;;4792434;29;20034;-92
2023/01/09 10:48:37;;;;;;;0.20;0.20;;;13.40;70.20;;;;;;4791014;29;20513;-91
2023/01/09 10:51:13;;;;;;;0.20;0.20;;;13.00;72.20;;;;;;4791664;29;20042;-94
2023/01/09 10:53:47;;;;;;;0.13;0.13;;;12.50;73.30;;;;;;4791469;29;20039;-92
2023/01/09 10:56:20;;;;;;;0.30;0.30;;;12.20;74.50;;;;;;4790319;29;20047;-92
2023/01/09 10:58:46;;;;;;;0.30;0.30;;;12.20;75.30;;;;;;4791270;29;20125;-91
2023/01/09 11:01:14;;;;;;;0.30;0.30;;;12.30;74.90;;;;;;4791188;29;20049;-94
2023/01/09 11:03:40;;;;;;;0.30;0.30;;;12.10;74.80;;;;;;4792334;29;20042;-93
2023/01/09 11:06:28;;;;;;;0.40;0.40;;;11.90;75.50;;;;;;4791619;29;20034;-94
2023/01/09 11:08:55;;;;;;;0.40;0.40;;;11.50;76.70;;;;;;4811088;29;20139;-92
2023/01/09 11:11:53;;;;;;;0.20;0.20;;;11.20;78.20;;;;;;4864397;29;20025;-92
2023/01/09 11:14:29;;;;;;;0.22;0.22;;;11.20;78.10;;;;;;4791423;29;20435;-93
2023/01/09 11:16:58;;;;;;;0.25;0.25;;;11.40;78.10;;;;;;4791208;29;20039;-91
2023/01/09 11:19:25;;;;;;;0.20;0.20;;;11.50;78.10;;;;;;4791386;29;20054;-92
2023/01/09 11:22:17;;;;;;;0.40;0.40;;;12.00;77.60;;;;;;4791706;29;20061;-93
2023/01/09 11:24:43;;;;;;;0.30;0.30;;;12.40;75.10;;;;;;4786209;29;20043;-89
2023/01/09 11:27:11;;;;;;;0.30;0.30;;;12.80;74.00;;;;;;4792303;29;20030;-91
2023/01/09 11:29:40;;;;;;;0.30;0.30;;;13.10;73.50;;;;;;4789710;29;20062;-91
2023/01/09 11:32:22;;;;;;;0.30;0.30;;;13.70;71.80;;;;;;4790252;29;20114;-91
2023/01/09 11:34:48;;;;;;;0.40;0.40;;;14.10;69.80;;;;;;4790033;29;20035;-91
2023/01/09 11:37:29;;;;;;;0.30;0.30;;;14.40;69.30;;;;;;4790089;29;20065;-94
2023/01/09 11:39:57;;;;;;;0.25;0.25;;;14.40;67.60;;;;;;4790424;29;20487;-92
2023/01/09 11:45:50;;;;;;;0.40;0.40;;;14.30;68.90;;;;;;4805342;29;20077;-92
2023/01/09 11:48:25;;;;;;;0.30;0.30;;;14.30;68.00;;;;;;4789575;29;20135;-91
2023/01/09 11:50:57;;;;;;;0.40;0.40;;;14.30;68.50;;;;;;4833500;29;20037;-91
2023/01/09 11:53:24;;;;;;;0.28;0.28;;;14.00;69.00;;;;;;4864464;29;20033;-93
2023/01/09 11:55:59;;;;;;;0.25;0.25;;;13.60;69.60;;;;;;4864010;29;20029;-91
2023/01/09 11:58:31;;;;;;;0.30;0.30;;;13.70;70.50;;;;;;4864513;29;20552;-93
2023/01/09 12:01:34;;;;;;;0.30;0.30;;;13.50;70.60;;;;;;4865412;29;20033;-95
2023/01/09 12:04:00;;;;;;;0.30;0.30;;;13.80;71.40;;;;;;4863149;29;20037;-92
2023/01/09 12:06:48;;;;;;;0.30;0.30;;;14.20;69.70;;;;;;4862863;29;20030;-92
2023/01/09 12:09:24;;;;;;;0.35;0.35;;;14.40;68.70;;;;;;4864817;29;20374;-93
2023/01/09 12:11:58;;;;;;;0.30;0.30;;;14.60;68.20;;;;;;4864692;29;20057;-91
2023/01/09 12:14:47;;;;;;;0.30;0.30;;;14.80;67.30;;;;;;4864927;29;20056;-91
2023/01/09 12:17:44;;;;;;;0.30;0.30;;;14.80;66.40;;;;;;4863206;29;20033;-93
2023/01/09 12:20:31;;;;;;;0.35;0.35;;;14.60;67.20;;;;;;4863457;29;20036;-92
2023/01/09 12:23:16;;;;;;;0.40;0.40;;;14.10;68.40;;;;;;4865917;29;20123;-92
2023/01/09 12:25:57;;;;;;;0.30;0.30;;;14.10;69.10;;;;;;4867789;29;20029;-91
2023/01/09 12:28:32;;;;;;;0.30;0.30;;;14.10;68.70;;;;;;4867454;29;20033;-91
2023/01/09 12:31:25;;;;;;;0.30;0.30;;;14.20;68.20;;;;;;4866585;29;20047;-92
2023/01/09 12:34:02;;;;;;;0.30;0.30;;;14.20;68.10;;;;;;4867038;29;20472;-91
2023/01/09 12:36:57;;;;;;;0.35;0.35;;;14.30;68.50;;;;;;4866863;29;20081;-92
2023/01/09 12:40:10;;;;;;;0.50;0.50;;;14.50;67.70;;;;;;4867055;29;20492;-92
2023/01/09 12:43:14;;;;;;;0.40;0.40;;;14.50;67.60;;;;;;4808321;29;20034;-92
2023/01/09 12:45:55;;;;;;;0.22;0.22;;;14.40;68.10;;;;;;4792194;29;20047;-91
2023/01/09 12:48:38;;;;;;;0.30;0.30;;;14.60;67.60;;;;;;4792328;29;20051;-91
2023/01/09 12:51:32;;;;;;;0.30;0.30;;;14.50;67.70;;;;;;4792819;29;20035;-92
2023/01/09 12:54:11;;;;;;;0.40;0.40;;;14.50;67.40;;;;;;4792224;29;20035;-92
2023/01/09 12:56:42;;;;;;;0.30;0.30;;;14.70;67.50;;;;;;4793771;29;20031;-92
2023/01/09 12:59:31;;;;;;;0.30;0.30;;;14.70;66.80;;;;;;4793797;29;20042;-91
2023/01/09 13:02:10;;;;;;;0.30;0.30;;;14.70;67.20;;;;;;4799392;29;20056;-92
2023/01/09 13:04:53;;;;;;;0.28;0.28;;;14.60;67.70;;;;;;4793693;29;20035;-92
2023/01/09 13:07:43;;;;;;;0.20;0.20;;;14.70;66.70;;;;;;4793553;29;20495;-91
2023/01/09 13:10:29;;;;;;;0.40;0.40;;;14.70;67.10;;;;;;4795191;29;20057;-92
2023/01/09 13:12:58;;;;;;;0.40;0.40;;;14.90;66.50;;;;;;4793795;29;20039;-91
2023/01/09 13:15:54;;;;;;;0.50;0.50;;;14.90;65.80;;;;;;4791915;29;20076;-92
2023/01/09 13:18:43;;;;;;;0.32;0.32;;;14.90;66.30;;;;;;4817078;29;20131;-91
2023/01/09 13:21:12;;;;;;;0.30;0.30;;;14.90;66.60;;;;;;4865790;29;20033;-91
2023/01/09 13:24:19;;;;;;;0.22;0.22;;;15.00;66.20;;;;;;4866077;29;20029;-91
2023/01/09 13:26:59;;;;;;;0.40;0.40;;;15.00;66.10;;;;;;4869746;29;20020;-91
2023/01/09 13:29:30;;;;;;;0.20;0.20;;;15.10;66.10;;;;;;4866046;29;20037;-91